Terminal Aerodrome Forecast
Issued by NWS

Home | Current Version | Previous Version | Text Only | Print | Product List | Glossary Off
Versions: 1 2 3 4 5 6 7 8 9 10 11 12 13 14 15

432
FTUS43 KMPX 210840 AAA
TAFRNH
TAF AMD
KRNH 210840Z 2109/2206 12008KT 6SM BR OVC005
     FM211400 19006KT 5SM -DZ BR OVC005
     FM211600 24009KT P6SM VCSH OVC008
     FM212000 28012G19KT P6SM SCT008 OVC012
     FM220100 27009KT P6SM OVC016=

USA.gov is the U.S. government's official web portal to all federal, state and local government web resources and services.